Time;durP1;ratioP1;P1;durP2;ratioP2;P2;SDS_P1;SDS_P2;PMS_P1;PMS_P2;Temp;Humidity;BMP_temperature;BMP_pressure;BME280_temperature;BME280_humidity;BME280_pressure;Samples;Min_cycle;Max_cycle;Signal;HPM_P1;HPM_P2
2021/09/06 00:00:10;;;;;;;;;;;19.70;90.10;;;;;;5090440;28;20489;-75
2021/09/06 00:02:35;;;;;;;22.50;10.63;;;19.70;90.10;;;;;;5108428;28;19956;-75
2021/09/06 00:05:04;;;;;;;21.80;10.30;;;19.60;90.10;;;;;;5073520;28;20044;-75
2021/09/06 00:07:30;;;;;;;23.40;11.57;;;19.60;90.20;;;;;;5108305;28;20035;-75
2021/09/06 00:10:17;;;;;;;24.85;11.02;;;19.60;90.30;;;;;;5090021;28;20251;-75
2021/09/06 00:12:42;;;;;;;24.23;11.30;;;19.60;90.50;;;;;;5089906;28;20075;-76
2021/09/06 00:15:08;;;;;;;;;;;19.60;90.40;;;;;;5108304;28;20473;-76
2021/09/06 00:17:34;;;;;;;25.15;11.85;;;19.60;90.40;;;;;;5089944;28;20382;-76
2021/09/06 00:19:59;;;;;;;24.90;12.50;;;19.70;90.40;;;;;;5108137;28;20027;-76
2021/09/06 00:22:25;;;;;;;24.02;12.05;;;19.70;90.50;;;;;;5108129;28;20398;-77
2021/09/06 00:24:51;;;;;;;24.77;12.23;;;19.60;90.50;;;;;;5108112;28;20038;-76
2021/09/06 00:27:16;;;;;;;32.30;14.30;;;19.70;90.60;;;;;;5089831;28;20035;-76
2021/09/06 00:29:42;;;;;;;22.25;11.55;;;19.70;90.60;;;;;;5090297;28;20431;-76
2021/09/06 00:32:08;;;;;;;;;;;19.70;90.70;;;;;;5108459;28;20454;-76
2021/09/06 00:34:33;;;;;;;29.63;12.90;;;19.60;90.60;;;;;;5107851;28;20381;-76
2021/09/06 00:36:59;;;;;;;;;;;19.60;90.60;;;;;;5073308;28;20023;-76
2021/09/06 00:39:24;;;;;;;26.00;12.95;;;19.60;90.60;;;;;;5108189;28;20086;-76
2021/09/06 00:41:50;;;;;;;;;;;19.60;90.60;;;;;;5108404;28;20084;-76
2021/09/06 00:44:16;;;;;;;27.45;11.85;;;19.50;90.60;;;;;;5089595;28;19912;-76
2021/09/06 00:46:45;;;;;;;28.20;13.95;;;19.40;90.60;;;;;;5089486;28;20127;-76
2021/09/06 00:49:11;;;;;;;28.65;13.18;;;19.40;90.80;;;;;;5107871;28;20032;-77
2021/09/06 00:51:37;;;;;;;30.17;14.27;;;19.40;90.90;;;;;;5089989;28;20462;-75
2021/09/06 00:54:03;;;;;;;;;;;19.30;91.10;;;;;;5090112;28;20084;-76
2021/09/06 00:56:28;;;;;;;32.90;13.98;;;19.30;91.10;;;;;;5107621;28;19920;-76
2021/09/06 00:58:54;;;;;;;29.45;13.48;;;19.20;91.10;;;;;;5107771;28;20424;-75
2021/09/06 01:01:20;;;;;;;31.50;13.80;;;19.20;91.20;;;;;;5089436;28;20350;-78
2021/09/06 01:03:45;;;;;;;;;;;19.10;91.30;;;;;;5073413;28;20036;-75
2021/09/06 01:06:11;;;;;;;29.33;13.50;;;19.10;91.30;;;;;;5107723;28;20094;-76
2021/09/06 01:08:37;;;;;;;30.42;13.95;;;19.10;91.30;;;;;;5107586;28;20066;-76
2021/09/06 01:11:03;;;;;;;30.90;14.45;;;19.00;91.40;;;;;;5089506;28;20028;-75
2021/09/06 01:13:28;;;;;;;32.78;14.15;;;19.00;91.60;;;;;;5108031;28;20165;-75
2021/09/06 01:15:54;;;;;;;32.85;15.73;;;18.90;91.70;;;;;;5107580;28;20080;-76
2021/09/06 01:18:20;;;;;;;35.28;14.88;;;18.90;91.80;;;;;;5107598;28;20039;-75
2021/09/06 01:20:45;;;;;;;30.33;14.52;;;18.80;91.90;;;;;;5089474;28;20500;-76
2021/09/06 01:23:11;;;;;;;36.95;15.07;;;18.80;92.00;;;;;;5089277;28;20036;-76
2021/09/06 01:25:37;;;;;;;37.08;16.00;;;18.70;92.10;;;;;;5089213;28;20039;-75
2021/09/06 01:28:03;;;;;;;33.28;14.88;;;18.60;92.20;;;;;;5073762;28;20126;-76
2021/09/06 01:30:29;;;;;;;35.58;15.90;;;18.60;92.30;;;;;;5111355;28;20118;-76
2021/09/06 01:32:54;;;;;;;31.85;15.07;;;18.60;92.40;;;;;;5111374;28;20023;-76
2021/09/06 01:35:20;;;;;;;34.85;16.08;;;18.50;92.50;;;;;;5111357;28;20024;-76
2021/09/06 01:37:46;;;;;;;37.22;16.70;;;18.50;92.80;;;;;;5111367;28;20050;-76
2021/09/06 01:40:12;;;;;;;33.55;15.18;;;18.50;92.70;;;;;;5093101;28;20505;-76
2021/09/06 01:42:38;;;;;;;32.33;15.13;;;18.50;92.80;;;;;;5111310;28;20040;-75
2021/09/06 01:45:04;;;;;;;29.95;15.43;;;18.40;92.90;;;;;;5111239;28;20031;-75
2021/09/06 01:47:31;;;;;;;32.45;15.07;;;18.40;93.00;;;;;;5092539;28;20043;-75
2021/09/06 01:49:57;;;;;;;30.70;14.40;;;18.40;93.10;;;;;;5110915;28;20027;-76
2021/09/06 01:52:24;;;;;;;32.13;15.38;;;18.40;93.10;;;;;;5076165;28;20031;-76
2021/09/06 01:54:49;;;;;;;34.40;16.50;;;18.40;93.20;;;;;;5110765;28;20020;-76
2021/09/06 01:57:15;;;;;;;30.05;13.88;;;18.40;93.30;;;;;;5111082;28;20065;-75
2021/09/06 01:59:41;;;;;;;35.00;15.80;;;18.40;93.30;;;;;;5092458;28;20124;-76
2021/09/06 02:02:06;;;;;;;37.10;16.65;;;18.40;93.40;;;;;;5110804;28;20035;-76
2021/09/06 02:04:32;;;;;;;34.80;15.23;;;18.40;93.40;;;;;;5110774;28;20051;-76
2021/09/06 02:06:58;;;;;;;34.35;15.70;;;18.40;93.40;;;;;;5092251;28;20027;-76
2021/09/06 02:09:23;;;;;;;33.70;15.15;;;18.40;93.50;;;;;;5092296;28;20470;-75
2021/09/06 02:11:49;;;;;;;29.17;14.60;;;18.40;93.50;;;;;;5110583;28;20084;-75
2021/09/06 02:14:15;;;;;;;41.20;17.42;;;18.40;93.70;;;;;;5092531;28;20039;-75
2021/09/06 02:16:40;;;;;;;33.42;16.02;;;18.40;93.50;;;;;;5110614;28;20032;-76
2021/09/06 02:19:06;;;;;;;34.75;16.65;;;18.40;93.60;;;;;;5092130;28;20057;-77
2021/09/06 02:21:32;;;;;;;31.88;17.08;;;18.40;93.60;;;;;;5092236;28;20035;-75
2021/09/06 02:24:01;;;;;;;37.58;16.35;;;18.40;93.70;;;;;;5092116;28;20027;-76
2021/09/06 02:26:28;;;;;;;38.38;17.52;;;18.50;93.70;;;;;;5075520;28;20031;-75
2021/09/06 02:28:53;;;;;;;;;;;18.40;93.80;;;;;;5092109;28;20038;-77
2021/09/06 02:31:19;;;;;;;39.92;18.63;;;18.40;93.70;;;;;;5092337;28;20007;-76
2021/09/06 02:33:44;;;;;;;37.58;17.35;;;18.50;93.90;;;;;;5110322;28;20035;-78
2021/09/06 02:36:10;;;;;;;38.97;17.60;;;18.50;94.00;;;;;;5110312;28;20035;-78
2021/09/06 02:38:36;;;;;;;37.90;17.13;;;18.50;93.80;;;;;;5091862;28;20027;-76
2021/09/06 02:41:02;;;;;;;;;;;18.40;93.90;;;;;;5075701;28;20110;-76
2021/09/06 02:43:28;;;;;;;43.63;18.17;;;18.40;93.90;;;;;;5091942;28;19968;-76
2021/09/06 02:45:53;;;;;;;38.30;16.75;;;18.40;93.80;;;;;;5074581;28;20043;-77
2021/09/06 02:48:19;;;;;;;36.63;16.80;;;18.40;93.90;;;;;;5091528;28;20042;-77
2021/09/06 02:50:45;;;;;;;41.40;17.75;;;18.40;94.00;;;;;;5091829;28;20032;-77
2021/09/06 02:53:10;;;;;;;38.25;17.20;;;18.30;94.10;;;;;;5091896;28;20039;-77
2021/09/06 02:55:36;;;;;;;39.92;17.80;;;18.30;94.20;;;;;;5109886;28;20552;-76
2021/09/06 02:58:02;;;;;;;41.88;19.30;;;18.30;94.30;;;;;;5109647;28;20443;-77
2021/09/06 03:00:28;;;;;;;39.78;17.48;;;18.20;94.30;;;;;;5091310;28;20027;-77
2021/09/06 03:02:54;;;;;;;39.28;17.65;;;18.20;94.40;;;;;;5091435;28;20092;-77
2021/09/06 03:05:19;;;;;;;36.95;17.67;;;18.20;94.50;;;;;;5074457;28;20028;-76
2021/09/06 03:07:45;;;;;;;40.63;18.02;;;18.20;94.50;;;;;;5109399;28;20085;-77
2021/09/06 03:10:11;;;;;;;43.20;19.88;;;18.20;94.60;;;;;;5109676;28;20027;-75
2021/09/06 03:12:37;;;;;;;39.70;18.08;;;18.10;94.60;;;;;;5109359;28;20063;-78
2021/09/06 03:15:03;;;;;;;42.75;17.33;;;18.10;94.70;;;;;;5091138;28;20457;-77
2021/09/06 03:17:29;;;;;;;41.72;18.05;;;18.10;94.80;;;;;;5109227;28;20024;-76
2021/09/06 03:19:55;;;;;;;38.08;18.48;;;18.10;94.80;;;;;;5109316;28;20072;-77
2021/09/06 03:22:21;;;;;;;39.15;17.70;;;18.00;94.90;;;;;;5090965;28;20036;-76
2021/09/06 03:24:46;;;;;;;40.75;18.27;;;18.00;94.90;;;;;;5109139;28;20051;-76
2021/09/06 03:27:13;;;;;;;40.80;18.25;;;18.00;95.00;;;;;;5109270;28;20050;-76
2021/09/06 03:29:39;;;;;;;40.50;18.52;;;18.00;95.00;;;;;;5108994;28;20027;-76
2021/09/06 03:32:05;;;;;;;37.42;18.15;;;18.00;95.10;;;;;;5109142;28;20031;-78
2021/09/06 03:34:31;;;;;;;43.53;18.15;;;18.00;95.20;;;;;;5091052;28;20554;-77
2021/09/06 03:36:57;;;;;;;45.28;18.92;;;18.00;95.30;;;;;;5108899;28;20023;-76
2021/09/06 03:39:22;;;;;;;38.50;17.77;;;18.00;95.30;;;;;;5109116;28;20474;-76
2021/09/06 03:41:48;;;;;;;44.47;19.10;;;18.00;95.30;;;;;;5091029;28;20115;-77
2021/09/06 03:44:14;;;;;;;41.08;18.77;;;18.00;95.40;;;;;;5108994;28;20048;-78
2021/09/06 03:46:39;;;;;;;47.00;20.10;;;18.00;95.40;;;;;;5108510;28;20039;-76
2021/09/06 03:49:05;;;;;;;44.05;18.20;;;18.00;95.40;;;;;;5108430;28;20066;-77
2021/09/06 03:51:31;;;;;;;42.85;19.02;;;18.00;95.40;;;;;;5107952;28;20042;-77
2021/09/06 03:53:56;;;;;;;43.42;20.38;;;18.00;95.40;;;;;;5090196;28;20028;-77
2021/09/06 03:56:22;;;;;;;47.17;19.92;;;18.00;95.40;;;;;;5090246;28;20016;-77
2021/09/06 03:58:48;;;;;;;43.53;18.77;;;18.00;95.40;;;;;;5090086;28;20035;-77
2021/09/06 04:01:14;;;;;;;45.55;19.73;;;18.00;95.50;;;;;;5090176;28;20501;-78
2021/09/06 04:03:40;;;;;;;48.25;19.42;;;18.00;95.50;;;;;;5056677;28;20032;-77
2021/09/06 04:06:06;;;;;;;39.55;19.02;;;18.00;95.50;;;;;;5108969;28;20073;-77
2021/09/06 04:08:32;;;;;;;41.85;18.92;;;17.90;95.50;;;;;;5090036;28;20436;-77
2021/09/06 04:10:58;;;;;;;40.15;17.58;;;17.90;95.60;;;;;;5108383;28;20028;-77
2021/09/06 04:13:23;;;;;;;45.42;18.92;;;17.90;95.60;;;;;;5089980;28;20470;-78
2021/09/06 04:15:49;;;;;;;44.38;18.98;;;17.80;95.70;;;;;;5108249;28;20234;-78
2021/09/06 04:18:16;;;;;;;42.22;18.83;;;17.80;95.80;;;;;;5090024;28;20058;-78
2021/09/06 04:20:42;;;;;;;42.13;19.13;;;17.70;95.90;;;;;;5089844;28;20031;-77
2021/09/06 04:23:07;;;;;;;;;;;17.70;96.00;;;;;;5108602;28;20100;-77
2021/09/06 04:25:33;;;;;;;43.35;18.45;;;17.70;95.90;;;;;;5108049;28;19961;-78
2021/09/06 04:27:59;;;;;;;47.28;20.88;;;17.70;95.80;;;;;;5089844;28;20034;-77
2021/09/06 04:30:24;;;;;;;40.25;18.63;;;17.60;95.90;;;;;;5089926;28;20035;-76
2021/09/06 04:32:50;;;;;;;39.92;18.85;;;17.60;96.00;;;;;;5108176;28;20378;-78
2021/09/06 04:35:16;;;;;;;44.28;19.00;;;17.60;96.10;;;;;;5089986;28;20027;-77
2021/09/06 04:37:41;;;;;;;44.95;19.95;;;17.60;96.20;;;;;;5090336;28;20508;-76
2021/09/06 04:40:08;;;;;;;44.63;18.85;;;17.60;96.20;;;;;;5108287;28;20465;-77
2021/09/06 04:42:34;;;;;;;51.47;20.63;;;17.60;96.30;;;;;;5090200;28;20019;-77
2021/09/06 04:45:00;;;;;;;43.65;19.73;;;17.60;96.30;;;;;;5089701;28;20077;-77
2021/09/06 04:47:26;;;;;;;49.13;21.67;;;17.50;96.30;;;;;;5089479;28;20171;-77
2021/09/06 04:49:51;;;;;;;43.17;18.42;;;17.50;96.40;;;;;;5073095;28;20474;-77
2021/09/06 04:52:17;;;;;;;42.03;19.65;;;17.50;96.40;;;;;;5108698;28;20020;-76
2021/09/06 04:54:42;;;;;;;43.67;20.05;;;17.40;96.50;;;;;;5073541;28;20028;-78
2021/09/06 04:57:08;;;;;;;50.83;20.25;;;17.40;96.50;;;;;;5089865;28;20858;-77
2021/09/06 04:59:34;;;;;;;49.38;20.60;;;17.40;96.60;;;;;;5072818;28;20054;-76
2021/09/06 05:01:59;;;;;;;50.10;21.40;;;17.40;96.60;;;;;;5108256;28;20087;-78
2021/09/06 05:04:25;;;;;;;46.58;22.35;;;17.30;96.70;;;;;;5112104;28;20482;-77
2021/09/06 05:06:51;;;;;;;50.22;20.67;;;17.30;96.70;;;;;;5112140;28;20032;-77
2021/09/06 05:09:16;;;;;;;48.28;20.23;;;17.30;96.80;;;;;;5093688;28;20035;-77
2021/09/06 05:11:42;;;;;;;45.70;19.63;;;17.30;96.80;;;;;;5112312;28;20030;-77
2021/09/06 05:14:08;;;;;;;46.05;19.67;;;17.30;96.90;;;;;;5113356;28;20157;-76
2021/09/06 05:16:33;;;;;;;52.00;20.60;;;17.30;96.90;;;;;;5095243;28;20024;-77
2021/09/06 05:18:59;;;;;;;48.67;20.67;;;17.30;97.00;;;;;;5112717;28;20051;-75
2021/09/06 05:21:25;;;;;;;50.75;21.33;;;17.30;97.00;;;;;;5112616;28;20031;-77
2021/09/06 05:23:52;;;;;;;47.65;20.15;;;17.30;97.00;;;;;;5112594;28;20032;-76
2021/09/06 05:26:17;;;;;;;50.15;19.83;;;17.30;97.10;;;;;;5094276;28;20175;-76
2021/09/06 05:28:43;;;;;;;48.42;19.95;;;17.30;97.10;;;;;;5077948;28;20032;-76
2021/09/06 05:31:10;;;;;;;48.72;20.02;;;17.30;97.20;;;;;;5111875;28;20389;-76
2021/09/06 05:33:36;;;;;;;49.45;20.30;;;17.20;97.20;;;;;;5111505;28;20385;-77
2021/09/06 05:36:02;;;;;;;50.67;21.90;;;17.20;97.20;;;;;;5093373;28;20027;-77
2021/09/06 05:38:28;;;;;;;45.70;20.65;;;17.20;97.20;;;;;;5112630;28;20481;-76
2021/09/06 05:40:53;;;;;;;50.03;21.70;;;17.20;97.30;;;;;;5112070;28;20107;-76
2021/09/06 05:43:19;;;;;;;50.75;20.92;;;17.20;97.30;;;;;;5111713;28;20110;-77
2021/09/06 05:45:45;;;;;;;49.38;21.25;;;17.20;97.30;;;;;;5093207;28;20391;-77
2021/09/06 05:48:11;;;;;;;46.67;21.77;;;17.20;97.40;;;;;;5093231;28;20039;-77
2021/09/06 05:50:36;;;;;;;48.35;21.17;;;17.20;97.50;;;;;;5093632;28;20390;-77
2021/09/06 05:53:02;;;;;;;48.83;20.80;;;17.20;97.50;;;;;;5077090;28;20028;-77
2021/09/06 05:55:28;;;;;;;51.35;21.10;;;17.20;97.50;;;;;;5111546;28;20638;-76
2021/09/06 05:57:54;;;;;;;47.97;22.10;;;17.20;97.60;;;;;;5093300;28;20039;-77
2021/09/06 06:00:20;;;;;;;;;;;17.20;97.60;;;;;;5112719;28;20024;-76
2021/09/06 06:02:46;;;;;;;50.80;20.50;;;17.20;97.50;;;;;;5094196;28;20373;-76
2021/09/06 06:05:12;;;;;;;39.70;18.63;;;17.30;97.40;;;;;;5093975;28;20028;-76
2021/09/06 06:07:37;;;;;;;45.60;18.98;;;17.30;97.50;;;;;;5111617;28;20020;-76
2021/09/06 06:10:04;;;;;;;44.33;20.17;;;17.30;97.50;;;;;;5093576;28;20420;-76
2021/09/06 06:12:30;;;;;;;45.80;19.02;;;17.30;97.50;;;;;;5112211;28;20055;-76
2021/09/06 06:14:57;;;;;;;;;;;17.30;97.50;;;;;;5113174;28;20028;-75
2021/09/06 06:17:24;;;;;;;43.63;19.13;;;17.30;97.50;;;;;;5094230;28;19912;-76
2021/09/06 06:19:50;;;;;;;44.38;20.08;;;17.40;97.30;;;;;;5093343;28;20027;-77
2021/09/06 06:22:16;;;;;;;47.97;19.85;;;17.40;97.40;;;;;;5111239;28;20095;-77
2021/09/06 06:24:42;;;;;;;47.72;20.83;;;17.40;97.40;;;;;;5093171;28;20465;-77
2021/09/06 06:27:07;;;;;;;46.50;20.08;;;17.40;97.40;;;;;;5110433;28;20100;-78
2021/09/06 06:29:33;;;;;;;45.00;18.63;;;17.50;97.60;;;;;;5111128;28;20115;-77
2021/09/06 06:32:00;;;;;;;45.95;19.38;;;17.50;97.40;;;;;;5092662;28;20028;-77
2021/09/06 06:34:26;;;;;;;42.03;18.17;;;17.50;97.40;;;;;;5111106;28;20028;-76
2021/09/06 06:36:51;;;;;;;45.72;19.17;;;17.60;97.40;;;;;;5092832;28;20024;-75
2021/09/06 06:39:18;;;;;;;49.13;20.05;;;17.60;97.40;;;;;;5111277;28;20038;-77
2021/09/06 06:41:46;;;;;;;42.88;19.02;;;17.60;97.40;;;;;;5093224;28;20035;-76
2021/09/06 06:44:13;;;;;;;42.55;19.15;;;17.70;97.40;;;;;;5093856;28;20043;-75
2021/09/06 06:46:39;;;;;;;39.67;18.95;;;17.70;97.40;;;;;;5088812;28;20064;-76
2021/09/06 06:49:04;;;;;;;45.63;18.92;;;17.80;97.40;;;;;;5088842;28;20057;-76
2021/09/06 06:51:30;;;;;;;41.70;18.65;;;17.80;97.30;;;;;;5088677;28;20046;-76
2021/09/06 06:53:56;;;;;;;46.22;18.92;;;17.90;97.30;;;;;;5090227;28;20399;-76
2021/09/06 06:56:22;;;;;;;37.55;16.65;;;17.90;97.30;;;;;;5089129;28;20036;-76
2021/09/06 06:58:47;;;;;;;40.72;17.70;;;18.00;97.20;;;;;;5089855;28;20103;-77
2021/09/06 07:01:13;;;;;;;43.20;18.35;;;18.00;97.10;;;;;;5088037;28;20039;-76
2021/09/06 07:03:39;;;;;;;43.17;17.60;;;18.10;97.30;;;;;;5089459;28;20051;-76
2021/09/06 07:06:04;;;;;;;37.03;16.58;;;18.10;97.00;;;;;;5089628;28;20542;-76
2021/09/06 07:08:30;;;;;;;37.88;17.52;;;18.20;97.00;;;;;;5089162;28;20032;-77
2021/09/06 07:10:56;;;;;;;39.80;17.63;;;18.20;96.90;;;;;;5087529;28;20024;-76
2021/09/06 07:13:21;;;;;;;36.63;16.85;;;18.30;96.90;;;;;;5070966;28;20028;-77
2021/09/06 07:15:47;;;;;;;41.15;19.10;;;18.30;96.90;;;;;;5087726;28;20048;-77
2021/09/06 07:18:13;;;;;;;36.47;17.13;;;18.40;96.80;;;;;;5088908;28;20110;-77
2021/09/06 07:20:38;;;;;;;38.38;17.08;;;18.50;96.80;;;;;;5087492;28;20092;-76
2021/09/06 07:23:05;;;;;;;35.83;16.65;;;18.60;96.80;;;;;;5087418;28;20058;-77
2021/09/06 07:25:30;;;;;;;;;;;18.70;96.60;;;;;;5086795;28;20039;-76
2021/09/06 07:27:56;;;;;;;33.42;16.85;;;18.70;96.60;;;;;;5088856;28;20247;-76
2021/09/06 07:30:22;;;;;;;33.47;16.75;;;18.80;96.50;;;;;;5087674;28;20032;-74
2021/09/06 07:32:48;;;;;;;33.13;14.73;;;18.90;96.50;;;;;;5088738;28;20038;-77
2021/09/06 07:35:14;;;;;;;37.15;17.27;;;19.10;96.30;;;;;;5087411;28;20399;-78
2021/09/06 07:37:40;;;;;;;33.20;15.23;;;19.20;96.20;;;;;;5088704;28;20028;-77
2021/09/06 07:40:11;;;;;;;34.15;15.45;;;19.30;96.10;;;;;;5088314;28;20081;-76
2021/09/06 07:42:38;;;;;;;32.47;14.60;;;19.50;96.10;;;;;;5088407;28;20028;-76
2021/09/06 07:45:06;;;;;;;33.15;15.18;;;19.90;96.00;;;;;;5086812;28;20035;-77
2021/09/06 07:47:31;;;;;;;35.03;16.65;;;20.40;96.00;;;;;;5107398;28;20052;-76
2021/09/06 07:49:58;;;;;;;;;;;21.20;95.50;;;;;;5108973;28;20151;-78
2021/09/06 07:52:27;;;;;;;25.65;12.93;;;22.10;94.90;;;;;;5073786;28;19954;-77
2021/09/06 07:54:53;;;;;;;31.65;13.40;;;22.90;93.40;;;;;;5108226;28;20073;-77
2021/09/06 07:57:19;;;;;;;;;;;23.40;92.30;;;;;;5108826;28;20046;-78
2021/09/06 07:59:44;;;;;;;25.35;13.13;;;23.80;91.50;;;;;;5109292;28;20011;-77
2021/09/06 08:02:10;;;;;;;;;;;23.90;90.60;;;;;;5109438;28;20485;-76
2021/09/06 08:04:36;;;;;;;24.73;11.82;;;23.70;90.20;;;;;;5089443;28;19947;-76
2021/09/06 08:07:01;;;;;;;;;;;23.60;89.50;;;;;;5108298;28;20034;-74
2021/09/06 08:09:27;;;;;;;28.02;12.23;;;23.40;89.70;;;;;;5089618;28;19916;-74
2021/09/06 08:11:55;;;;;;;;;;;23.40;89.70;;;;;;5090053;28;20021;-76
2021/09/06 08:14:22;;;;;;;26.45;12.07;;;23.30;88.80;;;;;;5107091;28;19908;-76
2021/09/06 08:16:47;;;;;;;24.08;12.30;;;23.00;88.10;;;;;;5106993;28;20023;-77
2021/09/06 08:19:13;;;;;;;;;;;22.60;88.30;;;;;;5107782;28;20359;-75
2021/09/06 08:21:39;;;;;;;24.23;11.40;;;22.40;89.30;;;;;;5107203;28;20246;-77
2021/09/06 08:24:05;;;;;;;23.33;11.43;;;22.40;89.70;;;;;;5107078;28;20107;-76
2021/09/06 08:26:30;;;;;;;;;;;22.40;89.50;;;;;;5107663;28;20438;-76
2021/09/06 08:28:56;;;;;;;31.10;12.27;;;22.30;89.30;;;;;;5071962;28;20031;-75
2021/09/06 08:31:22;;;;;;;;;;;22.10;89.30;;;;;;5107366;28;20472;-74
2021/09/06 08:33:48;;;;;;;27.08;11.75;;;21.90;89.60;;;;;;5107185;28;19911;-76
2021/09/06 08:36:13;;;;;;;;;;;21.80;89.70;;;;;;5106779;28;20019;-77
2021/09/06 08:38:40;;;;;;;27.65;12.98;;;21.70;90.10;;;;;;5106128;28;19918;-76
2021/09/06 08:41:07;;;;;;;24.70;11.52;;;21.60;90.10;;;;;;5087564;28;20122;-75
2021/09/06 08:43:33;;;;;;;24.67;11.77;;;21.60;90.10;;;;;;5071263;28;20024;-76
2021/09/06 08:46:01;;;;;;;;;;;21.50;90.30;;;;;;5095080;28;20047;-76
2021/09/06 08:48:27;;;;;;;25.30;12.05;;;21.50;90.40;;;;;;5097512;28;19908;-75
2021/09/06 08:50:53;;;;;;;;;;;21.40;90.50;;;;;;5096109;28;20023;-75
2021/09/06 08:53:20;;;;;;;26.25;11.32;;;21.40;90.50;;;;;;5098523;28;19954;-77
2021/09/06 08:55:46;;;;;;;21.50;11.05;;;21.40;90.50;;;;;;5100657;28;20096;-75
2021/09/06 08:58:11;;;;;;;;;;;21.40;90.50;;;;;;5088351;28;20027;-76
2021/09/06 09:00:37;;;;;;;24.25;10.90;;;21.30;90.50;;;;;;5106607;28;19912;-76
2021/09/06 09:03:08;;;;;;;;;;;21.30;90.50;;;;;;5107912;28;20027;-75
2021/09/06 09:05:34;;;;;;;24.90;11.20;;;21.40;90.70;;;;;;5108423;28;19904;-75
2021/09/06 09:08:01;;;;;;;;;;;21.40;90.70;;;;;;5109467;28;20035;-77
2021/09/06 09:10:38;;;;;;;;;;;21.50;90.60;;;;;;5090724;28;19911;-77
2021/09/06 09:13:08;;;;;;;22.15;11.23;;;21.50;90.60;;;;;;5090348;28;19988;-78
2021/09/06 09:15:37;;;;;;;22.00;11.27;;;21.50;90.50;;;;;;5108450;28;20027;-78
2021/09/06 09:18:06;;;;;;;25.42;11.77;;;21.50;90.50;;;;;;5090262;28;20398;-77
2021/09/06 09:20:42;;;;;;;22.95;12.00;;;21.60;90.50;;;;;;5108113;28;20016;-76
2021/09/06 09:23:08;;;;;;;23.95;11.52;;;21.60;90.50;;;;;;5090029;28;20023;-78
2021/09/06 09:25:35;;;;;;;26.55;12.00;;;21.70;90.50;;;;;;5090239;28;20549;-76
2021/09/06 09:28:01;;;;;;;25.33;10.82;;;21.80;90.40;;;;;;5089835;28;20027;-78
2021/09/06 09:30:33;;;;;;;24.83;12.48;;;21.90;90.20;;;;;;5108724;28;20024;-77
2021/09/06 09:33:12;;;;;;;23.52;10.88;;;21.90;90.00;;;;;;5108727;28;20091;-75
2021/09/06 09:35:38;;;;;;;23.60;11.43;;;21.90;89.90;;;;;;5088052;28;20467;-75
2021/09/06 09:38:10;;;;;;;21.67;11.55;;;22.00;89.90;;;;;;5068833;28;20031;-75
2021/09/06 09:40:46;;;;;;;25.40;12.35;;;22.10;89.90;;;;;;5091877;28;20043;-75
2021/09/06 09:43:11;;;;;;;20.67;11.10;;;22.20;89.60;;;;;;5090004;28;20107;-78
2021/09/06 09:45:37;;;;;;;;;;;22.30;89.70;;;;;;5108820;28;20100;-76
2021/09/06 09:48:05;;;;;;;23.77;11.07;;;22.50;89.60;;;;;;5089629;28;20328;-75
2021/09/06 09:50:34;;;;;;;18.95;9.88;;;22.60;89.20;;;;;;5111595;28;20101;-78
2021/09/06 09:53:00;;;;;;;20.50;9.57;;;22.80;88.90;;;;;;5111629;28;20020;-79
2021/09/06 09:55:32;;;;;;;22.35;10.48;;;23.00;88.50;;;;;;5111678;28;20024;-78
2021/09/06 09:57:58;;;;;;;22.80;11.18;;;23.10;87.60;;;;;;5112314;28;20450;-75
2021/09/06 10:00:23;;;;;;;;;;;23.10;87.00;;;;;;5112546;28;20031;-75
2021/09/06 10:02:58;;;;;;;22.23;9.98;;;23.10;87.00;;;;;;5111934;28;20354;-78
2021/09/06 10:05:30;;;;;;;20.77;11.48;;;23.10;86.60;;;;;;5112483;28;20062;-76
2021/09/06 10:07:57;;;;;;;22.70;11.00;;;23.10;86.60;;;;;;5112801;28;20020;-76
2021/09/06 10:10:24;;;;;;;19.17;9.98;;;23.20;86.40;;;;;;5112626;28;20029;-79
2021/09/06 10:13:13;;;;;;;28.50;12.93;;;23.30;86.40;;;;;;5112602;28;20031;-76
2021/09/06 10:15:43;;;;;;;24.13;13.20;;;23.30;86.00;;;;;;5088553;28;20095;-75
2021/09/06 10:18:23;;;;;;;24.17;11.75;;;23.30;85.70;;;;;;5077001;28;20045;-76
2021/09/06 10:20:52;;;;;;;20.10;10.13;;;23.30;85.60;;;;;;5112228;28;20457;-73
2021/09/06 10:23:18;;;;;;;21.92;11.07;;;23.20;85.60;;;;;;5112249;28;20019;-78
2021/09/06 10:25:45;;;;;;;20.55;10.40;;;23.20;85.40;;;;;;5112094;28;20031;-76
2021/09/06 10:28:14;;;;;;;21.55;10.45;;;23.30;85.40;;;;;;5092967;28;20054;-79
2021/09/06 10:30:40;;;;;;;15.70;8.93;;;23.60;85.70;;;;;;5093078;28;20020;-75
2021/09/06 10:33:08;;;;;;;20.50;10.48;;;24.50;86.00;;;;;;5093407;28;20019;-77
2021/09/06 10:35:35;;;;;;;29.20;17.88;;;25.50;84.50;;;;;;5092648;28;20024;-77
2021/09/06 10:38:04;;;;;;;19.00;9.90;;;26.50;83.10;;;;;;5076355;28;20084;-82
2021/09/06 10:40:33;;;;;;;17.45;9.60;;;27.80;80.90;;;;;;5092907;28;20408;-78
2021/09/06 10:42:59;;;;;;;16.88;9.38;;;28.50;77.10;;;;;;5093332;28;20019;-81
2021/09/06 10:45:25;;;;;;;19.65;10.40;;;28.80;75.10;;;;;;5112363;28;20021;-78
2021/09/06 10:48:01;;;;;;;16.25;9.38;;;28.90;73.60;;;;;;5111700;28;20437;-79
2021/09/06 10:50:27;;;;;;;22.77;10.05;;;28.80;72.00;;;;;;5111149;28;20031;-79
2021/09/06 10:52:54;;;;;;;19.48;9.73;;;28.70;71.60;;;;;;5110854;28;20019;-74
2021/09/06 10:55:20;;;;;;;18.65;10.82;;;28.40;70.60;;;;;;5092369;28;20050;-76
2021/09/06 10:57:47;;;;;;;18.17;10.35;;;28.20;70.40;;;;;;5091882;28;20042;-75
2021/09/06 11:00:17;;;;;;;23.90;11.98;;;28.10;70.30;;;;;;5110435;28;20024;-78
2021/09/06 11:02:43;;;;;;;15.30;9.50;;;28.40;70.80;;;;;;5110124;28;20697;-77
2021/09/06 11:05:19;;;;;;;15.73;9.15;;;28.90;69.60;;;;;;5110688;28;20028;-77
2021/09/06 11:07:46;;;;;;;16.38;9.10;;;29.60;69.40;;;;;;5110459;28;20039;-77
2021/09/06 11:10:14;;;;;;;15.85;7.93;;;30.30;68.60;;;;;;5107855;28;20378;-75
2021/09/06 11:12:54;;;;;;;16.85;8.50;;;30.70;66.70;;;;;;5110159;28;20351;-75
2021/09/06 11:15:34;;;;;;;17.42;8.77;;;31.10;65.70;;;;;;5104842;28;20031;-75
2021/09/06 11:18:03;;;;;;;16.40;9.30;;;31.30;64.80;;;;;;5107599;28;20410;-75
2021/09/06 11:20:31;;;;;;;18.50;8.35;;;31.60;63.50;;;;;;5090738;28;20025;-77
2021/09/06 11:23:09;;;;;;;17.23;9.23;;;31.80;62.90;;;;;;5108628;28;20035;-76
2021/09/06 11:25:37;;;;;;;15.18;9.05;;;32.20;62.20;;;;;;5107065;28;20035;-76
2021/09/06 11:28:10;;;;;;;16.50;10.75;;;32.70;61.60;;;;;;5105610;28;20028;-77
2021/09/06 11:30:42;;;;;;;19.20;10.90;;;32.70;59.80;;;;;;5102298;28;20386;-80
2021/09/06 11:33:10;;;;;;;17.10;9.63;;;32.60;59.10;;;;;;5103764;28;20015;-77
2021/09/06 11:35:41;;;;;;;20.65;10.23;;;32.50;59.30;;;;;;5086618;28;20041;-77
2021/09/06 11:38:08;;;;;;;16.65;9.77;;;32.60;58.70;;;;;;5105580;28;20020;-75
2021/09/06 11:40:35;;;;;;;18.05;9.90;;;32.40;58.10;;;;;;5090635;28;20408;-78
2021/09/06 11:43:02;;;;;;;18.13;9.82;;;32.30;58.30;;;;;;5072231;28;20031;-78
2021/09/06 11:45:28;;;;;;;17.52;10.52;;;32.30;58.20;;;;;;5085817;28;20027;-79
2021/09/06 11:48:01;;;;;;;19.45;10.98;;;31.90;57.50;;;;;;5092248;28;20054;-78
2021/09/06 11:50:33;;;;;;;19.33;10.48;;;31.30;57.80;;;;;;5091568;28;20027;-79
2021/09/06 11:53:06;;;;;;;15.82;9.05;;;30.90;58.10;;;;;;5091208;28;20012;-77
2021/09/06 11:55:32;;;;;;;18.95;9.32;;;30.60;58.40;;;;;;5090869;28;20020;-77
2021/09/06 11:58:12;;;;;;;16.77;9.13;;;30.50;59.00;;;;;;5108852;28;20016;-77
2021/09/06 12:00:40;;;;;;;15.18;8.75;;;30.50;59.30;;;;;;5086402;28;20023;-78
2021/09/06 12:03:10;;;;;;;16.33;8.90;;;30.80;59.60;;;;;;5107503;28;20046;-79
2021/09/06 12:05:40;;;;;;;18.70;10.27;;;31.30;59.20;;;;;;5101320;28;20028;-76
2021/09/06 12:08:11;;;;;;;18.50;10.68;;;31.80;58.70;;;;;;5087371;28;20104;-79
2021/09/06 12:10:37;;;;;;;15.55;9.18;;;31.90;57.50;;;;;;5103137;28;20023;-77
2021/09/06 12:13:06;;;;;;;15.57;9.23;;;31.50;57.30;;;;;;5108870;28;20129;-76
2021/09/06 12:15:34;;;;;;;19.17;9.63;;;31.20;57.30;;;;;;5088713;28;20035;-79
2021/09/06 12:18:14;;;;;;;16.73;9.95;;;31.00;57.50;;;;;;5101353;28;20020;-78
2021/09/06 12:20:41;;;;;;;15.68;9.75;;;30.70;57.50;;;;;;5101509;28;20443;-79
2021/09/06 12:23:13;;;;;;;17.55;9.27;;;30.70;58.40;;;;;;5091901;28;20021;-79
2021/09/06 12:25:40;;;;;;;19.00;9.85;;;31.10;58.50;;;;;;5108648;28;20040;-80
2021/09/06 12:28:15;;;;;;;14.43;9.18;;;31.50;57.90;;;;;;5090583;28;20028;-81
2021/09/06 12:30:43;;;;;;;17.30;9.45;;;31.80;57.30;;;;;;5070835;28;20028;-81
2021/09/06 12:33:12;;;;;;;14.95;8.82;;;31.50;56.60;;;;;;5099368;28;20027;-79
2021/09/06 12:35:38;;;;;;;15.52;8.65;;;31.10;57.00;;;;;;5104266;28;20031;-79